METAR Data
IDs: Format: Raw Decoded Include TAF

Data at: 1212 UTC 21 Apr 2021

METAR for:KSPB (Scappoose Ind Airpar, OR, US)
Text:KSPB 211153Z AUTO 29003KT 10SM CLR 07/04 A3008 RMK AO2 SLP187 T00670039 10156 20067 53001
Temperature: 6.7°C ( 44°F)
Dewpoint: 3.9°C ( 39°F) [RH = 82%]
Pressure (altimeter):30.08 inches Hg (1018.7 mb) [Sea level pressure: 1018.7 mb]
Winds:from the WNW (290 degrees) at 3 MPH (3 knots; 1.5 m/s)
Visibility:10 or more sm (16+ km)
Ceiling:at least 12,000 feet AGL
Clouds:sky clear below 12,000 feet AGL
QC Flag:automated observation with no human augmentation